sensor_id;sensor_type;location;lat;lon;timestamp;pressure;altitude;pressure_sealevel;temperature;humidity
56992;BME280;42885;49.754;18.636;2023-07-02T00:00:17;97327.50;;;22.18;100.00
56992;BME280;42885;49.754;18.636;2023-07-02T00:02:51;97328.56;;;22.12;100.00
56992;BME280;42885;49.754;18.636;2023-07-02T00:05:22;97332.64;;;22.08;100.00
56992;BME280;42885;49.754;18.636;2023-07-02T00:07:53;97327.80;;;21.97;100.00
56992;BME280;42885;49.754;18.636;2023-07-02T00:10:24;97328.44;;;21.88;100.00
56992;BME280;42885;49.754;18.636;2023-07-02T00:12:55;97325.38;;;21.91;100.00
56992;BME280;42885;49.754;18.636;2023-07-02T00:15:26;97324.94;;;21.88;100.00
56992;BME280;42885;49.754;18.636;2023-07-02T00:17:57;97326.88;;;21.79;100.00
56992;BME280;42885;49.754;18.636;2023-07-02T00:20:28;97326.98;;;21.70;100.00
56992;BME280;42885;49.754;18.636;2023-07-02T00:23:00;97327.45;;;21.59;100.00
56992;BME280;42885;49.754;18.636;2023-07-02T00:25:31;97326.13;;;21.59;100.00
56992;BME280;42885;49.754;18.636;2023-07-02T00:28:03;97325.56;;;21.64;100.00
56992;BME280;42885;49.754;18.636;2023-07-02T00:30:34;97325.13;;;21.75;100.00
56992;BME280;42885;49.754;18.636;2023-07-02T00:33:05;97323.97;;;21.73;100.00
56992;BME280;42885;49.754;18.636;2023-07-02T00:35:37;97323.22;;;21.91;100.00
56992;BME280;42885;49.754;18.636;2023-07-02T00:38:08;97323.47;;;21.85;100.00
56992;BME280;42885;49.754;18.636;2023-07-02T00:40:39;97321.38;;;21.80;100.00
56992;BME280;42885;49.754;18.636;2023-07-02T00:43:10;97316.56;;;21.65;100.00
56992;BME280;42885;49.754;18.636;2023-07-02T00:45:43;97318.11;;;21.48;100.00
56992;BME280;42885;49.754;18.636;2023-07-02T00:48:15;97318.07;;;21.52;100.00
56992;BME280;42885;49.754;18.636;2023-07-02T00:50:46;97321.53;;;21.53;100.00
56992;BME280;42885;49.754;18.636;2023-07-02T00:53:17;97317.64;;;21.59;100.00
56992;BME280;42885;49.754;18.636;2023-07-02T00:55:48;97325.07;;;21.38;100.00
56992;BME280;42885;49.754;18.636;2023-07-02T00:58:19;97316.98;;;21.47;100.00
56992;BME280;42885;49.754;18.636;2023-07-02T01:00:51;97322.16;;;21.29;100.00
56992;BME280;42885;49.754;18.636;2023-07-02T01:03:22;97318.73;;;21.39;100.00
56992;BME280;42885;49.754;18.636;2023-07-02T01:05:53;97323.11;;;21.47;100.00
56992;BME280;42885;49.754;18.636;2023-07-02T01:08:25;97321.33;;;21.43;100.00
56992;BME280;42885;49.754;18.636;2023-07-02T01:10:56;97319.99;;;21.58;100.00
56992;BME280;42885;49.754;18.636;2023-07-02T01:13:28;97321.81;;;21.58;100.00
56992;BME280;42885;49.754;18.636;2023-07-02T01:15:59;97317.36;;;21.69;100.00
56992;BME280;42885;49.754;18.636;2023-07-02T01:18:30;97308.66;;;21.45;100.00
56992;BME280;42885;49.754;18.636;2023-07-02T01:21:01;97309.87;;;21.54;100.00
56992;BME280;42885;49.754;18.636;2023-07-02T01:23:34;97306.23;;;21.55;100.00
56992;BME280;42885;49.754;18.636;2023-07-02T01:26:06;97305.98;;;21.45;100.00
56992;BME280;42885;49.754;18.636;2023-07-02T01:28:38;97309.73;;;21.40;100.00
56992;BME280;42885;49.754;18.636;2023-07-02T01:31:09;97306.68;;;21.58;100.00
56992;BME280;42885;49.754;18.636;2023-07-02T01:33:40;97305.56;;;21.27;100.00
56992;BME280;42885;49.754;18.636;2023-07-02T01:36:12;97303.61;;;21.51;100.00
56992;BME280;42885;49.754;18.636;2023-07-02T01:38:43;97306.66;;;21.48;100.00
56992;BME280;42885;49.754;18.636;2023-07-02T01:41:14;97307.17;;;21.58;100.00
56992;BME280;42885;49.754;18.636;2023-07-02T01:43:45;97305.84;;;21.58;100.00
56992;BME280;42885;49.754;18.636;2023-07-02T01:46:16;97303.91;;;21.67;100.00
56992;BME280;42885;49.754;18.636;2023-07-02T01:48:48;97304.20;;;21.57;100.00
56992;BME280;42885;49.754;18.636;2023-07-02T01:51:19;97303.18;;;21.58;100.00
56992;BME280;42885;49.754;18.636;2023-07-02T01:53:50;97302.34;;;21.57;100.00
56992;BME280;42885;49.754;18.636;2023-07-02T01:56:21;97304.13;;;21.61;100.00
56992;BME280;42885;49.754;18.636;2023-07-02T01:58:52;97301.84;;;21.58;100.00
56992;BME280;42885;49.754;18.636;2023-07-02T02:01:23;97299.97;;;21.37;100.00
56992;BME280;42885;49.754;18.636;2023-07-02T02:03:54;97304.86;;;21.18;100.00
56992;BME280;42885;49.754;18.636;2023-07-02T02:06:25;97307.06;;;21.14;100.00
56992;BME280;42885;49.754;18.636;2023-07-02T02:08:56;97307.81;;;21.04;100.00
56992;BME280;42885;49.754;18.636;2023-07-02T02:11:27;97306.36;;;21.16;100.00
56992;BME280;42885;49.754;18.636;2023-07-02T02:13:58;97301.07;;;21.12;100.00
56992;BME280;42885;49.754;18.636;2023-07-02T02:16:31;97307.91;;;20.96;100.00
56992;BME280;42885;49.754;18.636;2023-07-02T02:19:05;97303.30;;;21.76;100.00
56992;BME280;42885;49.754;18.636;2023-07-02T02:21:36;97300.19;;;21.05;100.00
56992;BME280;42885;49.754;18.636;2023-07-02T02:24:08;97305.59;;;20.97;100.00
56992;BME280;42885;49.754;18.636;2023-07-02T02:26:39;97310.48;;;21.04;100.00
56992;BME280;42885;49.754;18.636;2023-07-02T02:29:09;97308.48;;;21.06;100.00
56992;BME280;42885;49.754;18.636;2023-07-02T02:31:42;97308.92;;;20.95;100.00
56992;BME280;42885;49.754;18.636;2023-07-02T02:34:13;97309.06;;;20.97;100.00
56992;BME280;42885;49.754;18.636;2023-07-02T02:36:45;97306.95;;;20.93;100.00
56992;BME280;42885;49.754;18.636;2023-07-02T02:39:17;97305.94;;;20.94;100.00
56992;BME280;42885;49.754;18.636;2023-07-02T02:41:48;97308.48;;;21.06;100.00
56992;BME280;42885;49.754;18.636;2023-07-02T02:44:20;97304.98;;;20.90;100.00
56992;BME280;42885;49.754;18.636;2023-07-02T02:46:51;97300.37;;;20.88;100.00
56992;BME280;42885;49.754;18.636;2023-07-02T02:49:22;97305.67;;;20.69;100.00
56992;BME280;42885;49.754;18.636;2023-07-02T02:51:53;97299.91;;;20.81;100.00
56992;BME280;42885;49.754;18.636;2023-07-02T02:54:24;97305.89;;;20.83;100.00
56992;BME280;42885;49.754;18.636;2023-07-02T02:56:56;97304.06;;;20.83;100.00
56992;BME280;42885;49.754;18.636;2023-07-02T02:59:27;97302.47;;;20.74;100.00
56992;BME280;42885;49.754;18.636;2023-07-02T03:01:58;97299.41;;;20.81;100.00
56992;BME280;42885;49.754;18.636;2023-07-02T03:04:29;97299.41;;;20.81;100.00
56992;BME280;42885;49.754;18.636;2023-07-02T03:07:00;97307.91;;;21.26;100.00
56992;BME280;42885;49.754;18.636;2023-07-02T03:09:31;97299.02;;;21.34;100.00
56992;BME280;42885;49.754;18.636;2023-07-02T03:12:02;97306.34;;;21.47;100.00
56992;BME280;42885;49.754;18.636;2023-07-02T03:14:34;97305.74;;;21.40;100.00
56992;BME280;42885;49.754;18.636;2023-07-02T03:17:05;97314.67;;;21.43;100.00
56992;BME280;42885;49.754;18.636;2023-07-02T03:19:36;97309.75;;;21.10;100.00
56992;BME280;42885;49.754;18.636;2023-07-02T03:22:07;97315.39;;;20.96;100.00
56992;BME280;42885;49.754;18.636;2023-07-02T03:24:38;97304.44;;;20.95;100.00
56992;BME280;42885;49.754;18.636;2023-07-02T03:27:09;97314.30;;;21.06;100.00
56992;BME280;42885;49.754;18.636;2023-07-02T03:29:40;97308.24;;;21.12;100.00
56992;BME280;42885;49.754;18.636;2023-07-02T03:32:11;97309.81;;;21.06;100.00
56992;BME280;42885;49.754;18.636;2023-07-02T03:34:42;97307.23;;;21.13;100.00
56992;BME280;42885;49.754;18.636;2023-07-02T03:37:13;97311.44;;;21.22;100.00
56992;BME280;42885;49.754;18.636;2023-07-02T03:39:44;97315.94;;;21.37;100.00
56992;BME280;42885;49.754;18.636;2023-07-02T03:42:16;97317.78;;;21.21;100.00
56992;BME280;42885;49.754;18.636;2023-07-02T03:44:47;97319.58;;;21.51;100.00
56992;BME280;42885;49.754;18.636;2023-07-02T03:47:17;97318.52;;;21.30;100.00
56992;BME280;42885;49.754;18.636;2023-07-02T03:49:49;97319.09;;;21.36;100.00
56992;BME280;42885;49.754;18.636;2023-07-02T03:52:20;97327.95;;;21.48;100.00
56992;BME280;42885;49.754;18.636;2023-07-02T03:54:51;97319.05;;;21.40;100.00
56992;BME280;42885;49.754;18.636;2023-07-02T03:57:22;97332.98;;;21.42;100.00
56992;BME280;42885;49.754;18.636;2023-07-02T03:59:54;97321.08;;;21.49;100.00
56992;BME280;42885;49.754;18.636;2023-07-02T04:02:24;97317.69;;;21.55;100.00
56992;BME280;42885;49.754;18.636;2023-07-02T04:04:56;97324.68;;;21.67;100.00
56992;BME280;42885;49.754;18.636;2023-07-02T04:07:27;97327.63;;;21.47;100.00
56992;BME280;42885;49.754;18.636;2023-07-02T04:10:00;97324.93;;;21.62;100.00
56992;BME280;42885;49.754;18.636;2023-07-02T04:12:31;97323.39;;;21.52;100.00
56992;BME280;42885;49.754;18.636;2023-07-02T04:15:02;97324.23;;;21.38;100.00
56992;BME280;42885;49.754;18.636;2023-07-02T04:17:34;97324.30;;;21.44;100.00
56992;BME280;42885;49.754;18.636;2023-07-02T04:20:06;97325.80;;;21.32;100.00
56992;BME280;42885;49.754;18.636;2023-07-02T04:22:37;97323.98;;;21.43;100.00
56992;BME280;42885;49.754;18.636;2023-07-02T04:25:08;97323.84;;;21.56;100.00
56992;BME280;42885;49.754;18.636;2023-07-02T04:27:40;97324.56;;;21.80;100.00
56992;BME280;42885;49.754;18.636;2023-07-02T04:30:11;97328.36;;;21.92;100.00
56992;BME280;42885;49.754;18.636;2023-07-02T04:32:44;97324.77;;;22.00;100.00
56992;BME280;42885;49.754;18.636;2023-07-02T04:35:14;97332.82;;;22.07;100.00
56992;BME280;42885;49.754;18.636;2023-07-02T04:37:46;97334.51;;;22.04;100.00
56992;BME280;42885;49.754;18.636;2023-07-02T04:40:17;97332.98;;;21.94;100.00
56992;BME280;42885;49.754;18.636;2023-07-02T04:42:48;97325.53;;;22.05;100.00
56992;BME280;42885;49.754;18.636;2023-07-02T04:45:21;97334.59;;;22.10;100.00
56992;BME280;42885;49.754;18.636;2023-07-02T04:47:52;97339.17;;;22.17;100.00
56992;BME280;42885;49.754;18.636;2023-07-02T04:50:23;97336.13;;;22.31;100.00
56992;BME280;42885;49.754;18.636;2023-07-02T04:52:54;97337.56;;;22.66;100.00
56992;BME280;42885;49.754;18.636;2023-07-02T04:55:26;97336.97;;;22.99;100.00
56992;BME280;42885;49.754;18.636;2023-07-02T04:57:56;97335.16;;;23.24;100.00
56992;BME280;42885;49.754;18.636;2023-07-02T05:00:27;97339.60;;;22.92;100.00
56992;BME280;42885;49.754;18.636;2023-07-02T05:02:59;97337.96;;;23.44;100.00
56992;BME280;42885;49.754;18.636;2023-07-02T05:05:30;97339.31;;;23.51;100.00
56992;BME280;42885;49.754;18.636;2023-07-02T05:08:01;97334.38;;;23.48;100.00
56992;BME280;42885;49.754;18.636;2023-07-02T05:10:34;97334.20;;;23.49;100.00
56992;BME280;42885;49.754;18.636;2023-07-02T05:13:05;97333.23;;;23.46;100.00
56992;BME280;42885;49.754;18.636;2023-07-02T05:15:36;97331.64;;;23.34;100.00
56992;BME280;42885;49.754;18.636;2023-07-02T05:18:07;97338.22;;;23.56;100.00
56992;BME280;42885;49.754;18.636;2023-07-02T05:20:39;97336.95;;;23.76;100.00
56992;BME280;42885;49.754;18.636;2023-07-02T05:23:10;97341.83;;;23.97;100.00
56992;BME280;42885;49.754;18.636;2023-07-02T05:25:41;97339.45;;;23.85;100.00
56992;BME280;42885;49.754;18.636;2023-07-02T05:28:12;97343.77;;;23.92;98.76
56992;BME280;42885;49.754;18.636;2023-07-02T05:30:43;97344.18;;;23.89;97.44
56992;BME280;42885;49.754;18.636;2023-07-02T05:33:14;97350.69;;;24.04;98.77
56992;BME280;42885;49.754;18.636;2023-07-02T05:35:45;97353.20;;;24.06;97.70
56992;BME280;42885;49.754;18.636;2023-07-02T05:38:18;97352.89;;;24.12;98.62
56992;BME280;42885;49.754;18.636;2023-07-02T05:40:49;97353.92;;;24.17;100.00
56992;BME280;42885;49.754;18.636;2023-07-02T05:43:20;97352.78;;;24.09;100.00
56992;BME280;42885;49.754;18.636;2023-07-02T05:45:51;97363.31;;;24.00;100.00
56992;BME280;42885;49.754;18.636;2023-07-02T05:48:22;97363.73;;;23.97;98.56
56992;BME280;42885;49.754;18.636;2023-07-02T05:50:53;97365.76;;;24.19;100.00
56992;BME280;42885;49.754;18.636;2023-07-02T05:53:24;97360.22;;;24.27;94.12
56992;BME280;42885;49.754;18.636;2023-07-02T05:55:55;97359.77;;;24.10;91.77
56992;BME280;42885;49.754;18.636;2023-07-02T05:58:27;97359.91;;;24.33;86.45
56992;BME280;42885;49.754;18.636;2023-07-02T06:00:59;97363.73;;;24.41;85.29
56992;BME280;42885;49.754;18.636;2023-07-02T06:03:31;97371.14;;;24.66;87.93
56992;BME280;42885;49.754;18.636;2023-07-02T06:06:02;97365.89;;;24.49;78.86
56992;BME280;42885;49.754;18.636;2023-07-02T06:08:33;97372.89;;;24.77;77.26
56992;BME280;42885;49.754;18.636;2023-07-02T06:11:04;97365.50;;;24.92;75.16
56992;BME280;42885;49.754;18.636;2023-07-02T06:13:35;97361.82;;;24.80;72.83
56992;BME280;42885;49.754;18.636;2023-07-02T06:16:06;97374.05;;;24.85;71.15
56992;BME280;42885;49.754;18.636;2023-07-02T06:18:37;97373.26;;;25.34;69.63
56992;BME280;42885;49.754;18.636;2023-07-02T06:21:07;97371.59;;;25.53;72.89
56992;BME280;42885;49.754;18.636;2023-07-02T06:23:43;97376.14;;;25.33;69.38
56992;BME280;42885;49.754;18.636;2023-07-02T06:26:14;97378.94;;;25.28;73.85
56992;BME280;42885;49.754;18.636;2023-07-02T06:28:45;97381.25;;;24.91;73.54
56992;BME280;42885;49.754;18.636;2023-07-02T06:31:16;97384.66;;;24.89;69.65
56992;BME280;42885;49.754;18.636;2023-07-02T06:33:47;97381.52;;;25.19;72.94
56992;BME280;42885;49.754;18.636;2023-07-02T06:36:18;97388.97;;;25.04;70.61
56992;BME280;42885;49.754;18.636;2023-07-02T06:38:49;97393.69;;;25.15;74.94
56992;BME280;42885;49.754;18.636;2023-07-02T06:41:20;97397.40;;;25.00;71.89
56992;BME280;42885;49.754;18.636;2023-07-02T06:43:52;97413.56;;;25.17;74.54
56992;BME280;42885;49.754;18.636;2023-07-02T06:46:23;97406.72;;;25.27;77.08
56992;BME280;42885;49.754;18.636;2023-07-02T06:48:55;97400.59;;;24.93;72.98
56992;BME280;42885;49.754;18.636;2023-07-02T06:51:26;97405.12;;;24.99;72.44
56992;BME280;42885;49.754;18.636;2023-07-02T06:53:58;97406.03;;;24.69;71.83
56992;BME280;42885;49.754;18.636;2023-07-02T06:56:29;97408.39;;;25.78;73.82
56992;BME280;42885;49.754;18.636;2023-07-02T06:59:01;97404.20;;;25.03;69.60
56992;BME280;42885;49.754;18.636;2023-07-02T07:01:33;97399.53;;;24.67;72.35
56992;BME280;42885;49.754;18.636;2023-07-02T07:04:05;97414.35;;;24.77;71.42
56992;BME280;42885;49.754;18.636;2023-07-02T07:06:36;97414.45;;;24.59;70.78
56992;BME280;42885;49.754;18.636;2023-07-02T07:09:08;97416.51;;;24.64;73.09
56992;BME280;42885;49.754;18.636;2023-07-02T07:11:39;97420.65;;;25.13;75.45
56992;BME280;42885;49.754;18.636;2023-07-02T07:14:10;97424.47;;;25.15;72.13
56992;BME280;42885;49.754;18.636;2023-07-02T07:16:41;97426.95;;;25.03;71.44
56992;BME280;42885;49.754;18.636;2023-07-02T07:19:12;97434.34;;;24.74;70.70
56992;BME280;42885;49.754;18.636;2023-07-02T07:21:43;97438.85;;;24.73;73.09
56992;BME280;42885;49.754;18.636;2023-07-02T07:24:14;97425.80;;;24.81;72.33
56992;BME280;42885;49.754;18.636;2023-07-02T07:26:44;97438.76;;;25.32;71.25
56992;BME280;42885;49.754;18.636;2023-07-02T07:29:15;97438.69;;;25.02;69.13
56992;BME280;42885;49.754;18.636;2023-07-02T07:31:46;97436.84;;;24.89;67.01
56992;BME280;42885;49.754;18.636;2023-07-02T07:34:17;97445.17;;;24.90;68.47
56992;BME280;42885;49.754;18.636;2023-07-02T07:36:48;97459.56;;;25.23;69.29
56992;BME280;42885;49.754;18.636;2023-07-02T07:39:19;97460.61;;;24.95;70.70
56992;BME280;42885;49.754;18.636;2023-07-02T07:41:50;97462.20;;;24.69;73.93
56992;BME280;42885;49.754;18.636;2023-07-02T07:44:21;97465.69;;;24.69;76.82
56992;BME280;42885;49.754;18.636;2023-07-02T07:46:52;97469.66;;;24.42;79.21
56992;BME280;42885;49.754;18.636;2023-07-02T07:49:23;97477.11;;;24.54;78.57
56992;BME280;42885;49.754;18.636;2023-07-02T07:51:54;97475.11;;;24.38;79.26
56992;BME280;42885;49.754;18.636;2023-07-02T07:54:25;97481.43;;;24.24;80.58
56992;BME280;42885;49.754;18.636;2023-07-02T07:56:56;97486.23;;;24.49;80.74
56992;BME280;42885;49.754;18.636;2023-07-02T07:59:27;97485.67;;;24.67;80.65
56992;BME280;42885;49.754;18.636;2023-07-02T08:01:58;97485.94;;;24.61;82.22
56992;BME280;42885;49.754;18.636;2023-07-02T08:04:29;97488.31;;;24.60;82.71
56992;BME280;42885;49.754;18.636;2023-07-02T08:07:00;97487.67;;;25.02;82.58
56992;BME280;42885;49.754;18.636;2023-07-02T08:09:32;97486.02;;;25.01;82.42
56992;BME280;42885;49.754;18.636;2023-07-02T08:12:03;97496.91;;;25.74;80.63
56992;BME280;42885;49.754;18.636;2023-07-02T08:14:34;97498.93;;;24.64;91.68
56992;BME280;42885;49.754;18.636;2023-07-02T08:17:05;97500.02;;;24.21;94.02
56992;BME280;42885;49.754;18.636;2023-07-02T08:19:37;97488.42;;;24.69;90.81
56992;BME280;42885;49.754;18.636;2023-07-02T08:22:08;97490.91;;;24.71;91.91
56992;BME280;42885;49.754;18.636;2023-07-02T08:24:39;97490.61;;;24.32;90.77
56992;BME280;42885;49.754;18.636;2023-07-02T08:27:10;97489.65;;;25.05;86.62
56992;BME280;42885;49.754;18.636;2023-07-02T08:29:43;97490.36;;;25.29;82.31
56992;BME280;42885;49.754;18.636;2023-07-02T08:32:18;97488.30;;;25.45;79.40
56992;BME280;42885;49.754;18.636;2023-07-02T08:34:49;97487.02;;;25.68;79.62
56992;BME280;42885;49.754;18.636;2023-07-02T08:37:21;97482.88;;;26.08;82.14
56992;BME280;42885;49.754;18.636;2023-07-02T08:39:52;97485.39;;;25.47;84.87
56992;BME280;42885;49.754;18.636;2023-07-02T08:42:23;97480.58;;;25.12;80.02
56992;BME280;42885;49.754;18.636;2023-07-02T08:44:57;97489.30;;;25.64;82.74
56992;BME280;42885;49.754;18.636;2023-07-02T08:47:30;97490.45;;;25.95;77.28
56992;BME280;42885;49.754;18.636;2023-07-02T08:50:02;97495.34;;;26.12;76.30
56992;BME280;42885;49.754;18.636;2023-07-02T08:52:34;97495.77;;;25.73;79.45
56992;BME280;42885;49.754;18.636;2023-07-02T08:55:06;97493.59;;;25.79;75.77
56992;BME280;42885;49.754;18.636;2023-07-02T08:57:37;97491.78;;;25.46;74.90
56992;BME280;42885;49.754;18.636;2023-07-02T09:00:11;97487.78;;;25.39;74.49
56992;BME280;42885;49.754;18.636;2023-07-02T09:02:44;97485.20;;;25.98;69.59
56992;BME280;42885;49.754;18.636;2023-07-02T09:05:18;97495.41;;;25.55;72.22
56992;BME280;42885;49.754;18.636;2023-07-02T09:07:52;97484.88;;;25.47;75.58
56992;BME280;42885;49.754;18.636;2023-07-02T09:10:29;97493.59;;;25.79;73.77
56992;BME280;42885;49.754;18.636;2023-07-02T09:13:05;97477.52;;;26.08;76.90
56992;BME280;42885;49.754;18.636;2023-07-02T09:15:40;97485.59;;;25.72;73.42
56992;BME280;42885;49.754;18.636;2023-07-02T09:18:20;97487.00;;;26.11;70.26
56992;BME280;42885;49.754;18.636;2023-07-02T09:20:56;97481.08;;;26.32;70.09
56992;BME280;42885;49.754;18.636;2023-07-02T09:23:35;97469.67;;;27.07;66.90
56992;BME280;42885;49.754;18.636;2023-07-02T09:26:07;97483.50;;;26.72;66.63
56992;BME280;42885;49.754;18.636;2023-07-02T09:28:39;97470.86;;;26.79;67.33
56992;BME280;42885;49.754;18.636;2023-07-02T09:31:11;97475.67;;;26.38;68.46
56992;BME280;42885;49.754;18.636;2023-07-02T09:33:43;97471.61;;;26.22;76.51
56992;BME280;42885;49.754;18.636;2023-07-02T09:36:16;97478.36;;;26.02;74.86
56992;BME280;42885;49.754;18.636;2023-07-02T09:38:53;97464.39;;;26.46;72.17
56992;BME280;42885;49.754;18.636;2023-07-02T09:41:25;97472.15;;;26.38;69.66
56992;BME280;42885;49.754;18.636;2023-07-02T09:43:56;97471.05;;;26.36;75.46
56992;BME280;42885;49.754;18.636;2023-07-02T09:46:28;97463.67;;;27.84;67.43
56992;BME280;42885;49.754;18.636;2023-07-02T09:49:01;97462.97;;;28.08;64.81
56992;BME280;42885;49.754;18.636;2023-07-02T09:51:33;97446.90;;;28.71;64.83
56992;BME280;42885;49.754;18.636;2023-07-02T09:54:05;97461.11;;;27.27;66.34
56992;BME280;42885;49.754;18.636;2023-07-02T09:56:37;97466.91;;;27.49;63.33
56992;BME280;42885;49.754;18.636;2023-07-02T09:59:08;97460.23;;;27.68;62.95
56992;BME280;42885;49.754;18.636;2023-07-02T10:01:40;97464.25;;;27.86;63.23
56992;BME280;42885;49.754;18.636;2023-07-02T10:04:13;97460.09;;;28.40;62.02
56992;BME280;42885;49.754;18.636;2023-07-02T10:06:50;97465.52;;;28.12;60.61
56992;BME280;42885;49.754;18.636;2023-07-02T10:09:36;97458.80;;;27.93;61.40
56992;BME280;42885;49.754;18.636;2023-07-02T10:12:22;97456.70;;;28.23;61.42
56992;BME280;42885;49.754;18.636;2023-07-02T10:14:56;97460.74;;;27.58;63.63
56992;BME280;42885;49.754;18.636;2023-07-02T10:17:32;97459.40;;;27.58;63.99
56992;BME280;42885;49.754;18.636;2023-07-02T10:20:06;97457.69;;;27.19;66.91
56992;BME280;42885;49.754;18.636;2023-07-02T10:22:46;97449.83;;;27.53;68.75
56992;BME280;42885;49.754;18.636;2023-07-02T10:25:26;97455.80;;;28.01;60.51
56992;BME280;42885;49.754;18.636;2023-07-02T10:28:14;97438.81;;;27.61;62.34
56992;BME280;42885;49.754;18.636;2023-07-02T10:30:37;97449.02;;;27.71;61.50
56992;BME280;42885;49.754;18.636;2023-07-02T10:33:15;97449.09;;;28.11;60.22
56992;BME280;42885;49.754;18.636;2023-07-02T10:35:50;97442.84;;;28.81;57.94
56992;BME280;42885;49.754;18.636;2023-07-02T10:38:25;97438.45;;;28.77;57.26
56992;BME280;42885;49.754;18.636;2023-07-02T10:40:59;97452.80;;;28.59;57.21
56992;BME280;42885;49.754;18.636;2023-07-02T10:43:32;97442.41;;;28.84;59.60
56992;BME280;42885;49.754;18.636;2023-07-02T10:46:04;97442.21;;;28.67;58.56
56992;BME280;42885;49.754;18.636;2023-07-02T10:48:36;97449.56;;;28.60;59.97
56992;BME280;42885;49.754;18.636;2023-07-02T10:51:12;97444.37;;;27.41;60.18
56992;BME280;42885;49.754;18.636;2023-07-02T10:53:44;97449.39;;;27.21;64.33
56992;BME280;42885;49.754;18.636;2023-07-02T10:56:16;97445.23;;;28.58;58.03
56992;BME280;42885;49.754;18.636;2023-07-02T10:58:51;97448.70;;;28.26;57.59
56992;BME280;42885;49.754;18.636;2023-07-02T11:01:28;97446.92;;;28.01;62.63
56992;BME280;42885;49.754;18.636;2023-07-02T11:04:01;97428.08;;;28.10;57.88
56992;BME280;42885;49.754;18.636;2023-07-02T11:06:34;97418.42;;;28.73;56.79
56992;BME280;42885;49.754;18.636;2023-07-02T11:09:18;97430.19;;;29.38;57.67
56992;BME280;42885;49.754;18.636;2023-07-02T11:11:55;97412.02;;;30.11;56.60
56992;BME280;42885;49.754;18.636;2023-07-02T11:14:28;97428.16;;;28.22;56.08
56992;BME280;42885;49.754;18.636;2023-07-02T11:17:02;97432.23;;;27.66;62.78
56992;BME280;42885;49.754;18.636;2023-07-02T11:19:36;97421.52;;;28.25;59.36
56992;BME280;42885;49.754;18.636;2023-07-02T11:22:08;97418.84;;;29.12;59.43
56992;BME280;42885;49.754;18.636;2023-07-02T11:24:40;97423.22;;;28.71;53.35
56992;BME280;42885;49.754;18.636;2023-07-02T11:27:20;97417.55;;;29.03;50.92
56992;BME280;42885;49.754;18.636;2023-07-02T11:29:47;97423.58;;;29.08;54.35
56992;BME280;42885;49.754;18.636;2023-07-02T11:32:19;97421.91;;;29.66;53.17
56992;BME280;42885;49.754;18.636;2023-07-02T11:34:54;97417.20;;;29.74;50.66
56992;BME280;42885;49.754;18.636;2023-07-02T11:37:28;97421.96;;;29.95;51.11
56992;BME280;42885;49.754;18.636;2023-07-02T11:39:59;97422.58;;;30.27;51.34
56992;BME280;42885;49.754;18.636;2023-07-02T11:42:30;97422.80;;;28.98;48.96
56992;BME280;42885;49.754;18.636;2023-07-02T11:45:04;97422.25;;;28.32;52.58
56992;BME280;42885;49.754;18.636;2023-07-02T11:47:38;97419.96;;;29.14;57.56
56992;BME280;42885;49.754;18.636;2023-07-02T11:50:15;97423.25;;;29.66;50.42
56992;BME280;42885;49.754;18.636;2023-07-02T11:52:47;97429.12;;;30.62;50.20
56992;BME280;42885;49.754;18.636;2023-07-02T11:55:19;97419.97;;;30.95;44.82
56992;BME280;42885;49.754;18.636;2023-07-02T11:57:51;97410.79;;;31.13;45.25
56992;BME280;42885;49.754;18.636;2023-07-02T12:00:23;97422.39;;;29.63;51.06
56992;BME280;42885;49.754;18.636;2023-07-02T12:02:55;97422.50;;;28.85;51.54
56992;BME280;42885;49.754;18.636;2023-07-02T12:05:27;97422.13;;;29.91;49.99
56992;BME280;42885;49.754;18.636;2023-07-02T12:08:01;97422.11;;;29.15;53.29
56992;BME280;42885;49.754;18.636;2023-07-02T12:10:33;97421.75;;;29.11;48.27
56992;BME280;42885;49.754;18.636;2023-07-02T12:13:05;97418.70;;;29.07;48.98
56992;BME280;42885;49.754;18.636;2023-07-02T12:15:36;97422.39;;;29.04;47.96
56992;BME280;42885;49.754;18.636;2023-07-02T12:18:09;97420.81;;;28.72;53.73
56992;BME280;42885;49.754;18.636;2023-07-02T12:20:41;97424.52;;;29.13;50.54
56992;BME280;42885;49.754;18.636;2023-07-02T12:23:16;97429.94;;;29.90;48.25
56992;BME280;42885;49.754;18.636;2023-07-02T12:25:50;97429.97;;;30.34;45.37
56992;BME280;42885;49.754;18.636;2023-07-02T12:28:23;97431.53;;;30.44;48.02
56992;BME280;42885;49.754;18.636;2023-07-02T12:30:54;97415.78;;;30.56;49.08
56992;BME280;42885;49.754;18.636;2023-07-02T12:33:26;97420.62;;;31.22;43.59
56992;BME280;42885;49.754;18.636;2023-07-02T12:35:57;97424.43;;;30.87;43.09
56992;BME280;42885;49.754;18.636;2023-07-02T12:38:30;97427.98;;;30.58;43.78
56992;BME280;42885;49.754;18.636;2023-07-02T12:41:03;97429.48;;;30.66;43.07
56992;BME280;42885;49.754;18.636;2023-07-02T12:43:37;97425.17;;;30.21;45.45
56992;BME280;42885;49.754;18.636;2023-07-02T12:46:09;97431.24;;;30.43;44.32
56992;BME280;42885;49.754;18.636;2023-07-02T12:48:42;97425.74;;;31.58;43.12
56992;BME280;42885;49.754;18.636;2023-07-02T12:51:15;97429.78;;;30.84;41.34
56992;BME280;42885;49.754;18.636;2023-07-02T12:53:48;97431.04;;;30.79;41.83
56992;BME280;42885;49.754;18.636;2023-07-02T12:56:21;97443.08;;;29.12;45.08
56992;BME280;42885;49.754;18.636;2023-07-02T12:58:54;97443.15;;;29.27;45.37
56992;BME280;42885;49.754;18.636;2023-07-02T13:01:27;97447.98;;;28.82;47.82
56992;BME280;42885;49.754;18.636;2023-07-02T13:04:00;97470.47;;;28.67;49.61
56992;BME280;42885;49.754;18.636;2023-07-02T13:06:33;97495.39;;;28.32;50.90
56992;BME280;42885;49.754;18.636;2023-07-02T13:09:05;97527.17;;;26.54;65.21